sensor_id;sensor_type;location;lat;lon;timestamp;pressure;altitude;pressure_sealevel;temperature;humidity
10897;BME280;5501;51.176;6.470;2022-07-29T00:05:01;100991.63;;;20.87;49.36
10897;BME280;5501;51.176;6.470;2022-07-29T00:10:03;100979.06;;;21.00;49.02
10897;BME280;5501;51.176;6.470;2022-07-29T00:15:05;100973.66;;;20.86;49.43
10897;BME280;5501;51.176;6.470;2022-07-29T00:20:07;100972.44;;;20.91;49.12
10897;BME280;5501;51.176;6.470;2022-07-29T00:25:12;100965.19;;;20.78;49.58
10897;BME280;5501;51.176;6.470;2022-07-29T00:30:14;100955.69;;;20.85;49.31
10897;BME280;5501;51.176;6.470;2022-07-29T00:35:15;100948.56;;;20.84;49.39
10897;BME280;5501;51.176;6.470;2022-07-29T00:40:36;100933.41;;;20.81;49.26
10897;BME280;5501;51.176;6.470;2022-07-29T00:45:44;100944.75;;;20.74;49.86
10897;BME280;5501;51.176;6.470;2022-07-29T00:50:46;100937.00;;;20.68;50.45
10897;BME280;5501;51.176;6.470;2022-07-29T00:55:47;100934.91;;;20.73;50.20
10897;BME280;5501;51.176;6.470;2022-07-29T01:00:49;100928.72;;;20.71;50.30
10897;BME280;5501;51.176;6.470;2022-07-29T01:05:52;100924.66;;;20.64;50.51
10897;BME280;5501;51.176;6.470;2022-07-29T01:10:54;100924.28;;;20.70;50.51
10897;BME280;5501;51.176;6.470;2022-07-29T01:16:00;100924.28;;;20.70;50.21
10897;BME280;5501;51.176;6.470;2022-07-29T01:21:36;100926.31;;;20.66;50.57
10897;BME280;5501;51.176;6.470;2022-07-29T01:26:49;100928.16;;;20.66;50.62
10897;BME280;5501;51.176;6.470;2022-07-29T01:32:07;100918.09;;;20.68;50.38
10897;BME280;5501;51.176;6.470;2022-07-29T01:37:43;100924.91;;;20.61;50.61
10897;BME280;5501;51.176;6.470;2022-07-29T01:42:49;100944.56;;;20.63;50.72
10897;BME280;5501;51.176;6.470;2022-07-29T01:52:56;100964.09;;;20.40;50.09
10897;BME280;5501;51.176;6.470;2022-07-29T01:58:00;100953.28;;;20.40;50.95
10897;BME280;5501;51.176;6.470;2022-07-29T02:03:05;100960.41;;;20.55;50.12
10897;BME280;5501;51.176;6.470;2022-07-29T02:08:09;100959.72;;;20.65;49.86
10897;BME280;5501;51.176;6.470;2022-07-29T02:13:12;100944.91;;;20.44;50.37
10897;BME280;5501;51.176;6.470;2022-07-29T02:18:17;100945.50;;;20.35;50.76
10897;BME280;5501;51.176;6.470;2022-07-29T02:23:22;100951.47;;;20.40;50.52
10897;BME280;5501;51.176;6.470;2022-07-29T02:28:26;100939.31;;;20.33;50.62
10897;BME280;5501;51.176;6.470;2022-07-29T02:33:30;100931.72;;;20.12;51.30
10897;BME280;5501;51.176;6.470;2022-07-29T02:38:35;100948.47;;;20.02;52.33
10897;BME280;5501;51.176;6.470;2022-07-29T02:43:58;100943.84;;;20.19;52.72
10897;BME280;5501;51.176;6.470;2022-07-29T02:49:15;100965.28;;;20.22;53.16
10897;BME280;5501;51.176;6.470;2022-07-29T02:54:45;100982.38;;;20.22;54.24
10897;BME280;5501;51.176;6.470;2022-07-29T02:59:50;100994.19;;;19.92;56.80
10897;BME280;5501;51.176;6.470;2022-07-29T03:04:53;101003.28;;;19.75;62.80
10897;BME280;5501;51.176;6.470;2022-07-29T03:09:59;100986.59;;;19.25;68.04
10897;BME280;5501;51.176;6.470;2022-07-29T03:15:01;100975.28;;;18.87;71.52
10897;BME280;5501;51.176;6.470;2022-07-29T03:20:03;100980.88;;;18.69;73.95
10897;BME280;5501;51.176;6.470;2022-07-29T03:25:12;100961.91;;;18.39;76.03
10897;BME280;5501;51.176;6.470;2022-07-29T03:30:14;100960.47;;;18.32;76.71
10897;BME280;5501;51.176;6.470;2022-07-29T03:35:22;100951.94;;;18.41;77.73
10897;BME280;5501;51.176;6.470;2022-07-29T03:40:29;100960.06;;;18.24;78.52
10897;BME280;5501;51.176;6.470;2022-07-29T03:45:33;100945.94;;;18.19;78.14
10897;BME280;5501;51.176;6.470;2022-07-29T03:50:36;100933.88;;;18.11;78.53
10897;BME280;5501;51.176;6.470;2022-07-29T03:55:41;100931.81;;;18.16;80.26
10897;BME280;5501;51.176;6.470;2022-07-29T04:00:44;100939.44;;;18.08;82.85
10897;BME280;5501;51.176;6.470;2022-07-29T04:05:58;100950.81;;;18.13;83.16
10897;BME280;5501;51.176;6.470;2022-07-29T04:11:01;100955.22;;;18.14;84.26
10897;BME280;5501;51.176;6.470;2022-07-29T04:16:04;100978.97;;;17.90;86.26
10897;BME280;5501;51.176;6.470;2022-07-29T04:21:06;100974.09;;;17.81;88.81
10897;BME280;5501;51.176;6.470;2022-07-29T04:26:07;100964.81;;;17.87;89.88
10897;BME280;5501;51.176;6.470;2022-07-29T04:31:12;100971.47;;;17.80;93.27
10897;BME280;5501;51.176;6.470;2022-07-29T04:36:14;100970.88;;;17.58;93.89
10897;BME280;5501;51.176;6.470;2022-07-29T04:41:29;100963.38;;;17.47;93.62
10897;BME280;5501;51.176;6.470;2022-07-29T04:46:34;100963.16;;;17.67;95.43
10897;BME280;5501;51.176;6.470;2022-07-29T04:51:36;100948.53;;;17.73;96.08
10897;BME280;5501;51.176;6.470;2022-07-29T04:56:39;100941.13;;;17.44;97.80
10897;BME280;5501;51.176;6.470;2022-07-29T05:01:40;100938.66;;;17.39;97.94
10897;BME280;5501;51.176;6.470;2022-07-29T05:06:43;100942.22;;;17.57;96.62
10897;BME280;5501;51.176;6.470;2022-07-29T05:11:45;100953.06;;;17.72;94.87
10897;BME280;5501;51.176;6.470;2022-07-29T05:16:47;100949.84;;;17.66;96.33
10897;BME280;5501;51.176;6.470;2022-07-29T05:21:49;100932.56;;;17.53;95.45
10897;BME280;5501;51.176;6.470;2022-07-29T05:26:52;100943.09;;;17.57;95.48
10897;BME280;5501;51.176;6.470;2022-07-29T05:31:53;100955.56;;;17.92;94.78
10897;BME280;5501;51.176;6.470;2022-07-29T05:36:55;100956.31;;;17.94;95.00
10897;BME280;5501;51.176;6.470;2022-07-29T05:41:56;100952.56;;;17.81;96.13
10897;BME280;5501;51.176;6.470;2022-07-29T05:46:58;100964.41;;;17.94;97.36
10897;BME280;5501;51.176;6.470;2022-07-29T05:51:59;100977.28;;;18.05;95.52
10897;BME280;5501;51.176;6.470;2022-07-29T05:57:01;100984.78;;;18.15;96.83
10897;BME280;5501;51.176;6.470;2022-07-29T06:02:03;100988.09;;;18.20;96.63
10897;BME280;5501;51.176;6.470;2022-07-29T06:07:06;101017.41;;;18.09;95.66
10897;BME280;5501;51.176;6.470;2022-07-29T06:12:08;101037.63;;;18.33;94.79
10897;BME280;5501;51.176;6.470;2022-07-29T06:17:09;101055.13;;;18.42;94.23
10897;BME280;5501;51.176;6.470;2022-07-29T06:22:15;101071.72;;;18.34;92.76
10897;BME280;5501;51.176;6.470;2022-07-29T06:27:17;101058.53;;;18.45;91.17
10897;BME280;5501;51.176;6.470;2022-07-29T06:32:18;101050.13;;;18.51;91.93
10897;BME280;5501;51.176;6.470;2022-07-29T06:37:23;101036.06;;;18.29;93.49
10897;BME280;5501;51.176;6.470;2022-07-29T06:42:26;101050.44;;;18.28;95.21
10897;BME280;5501;51.176;6.470;2022-07-29T06:47:28;101058.53;;;18.28;97.10
10897;BME280;5501;51.176;6.470;2022-07-29T06:52:30;101047.00;;;18.26;99.36
10897;BME280;5501;51.176;6.470;2022-07-29T06:57:32;101044.66;;;18.03;100.00
10897;BME280;5501;51.176;6.470;2022-07-29T07:02:33;101051.22;;;18.15;100.00
10897;BME280;5501;51.176;6.470;2022-07-29T07:07:35;101050.03;;;18.03;100.00
10897;BME280;5501;51.176;6.470;2022-07-29T07:12:36;101039.16;;;17.72;100.00
10897;BME280;5501;51.176;6.470;2022-07-29T07:17:38;101025.53;;;17.58;100.00
10897;BME280;5501;51.176;6.470;2022-07-29T07:22:40;101014.28;;;17.67;100.00
10897;BME280;5501;51.176;6.470;2022-07-29T07:27:41;101016.34;;;17.96;100.00
10897;BME280;5501;51.176;6.470;2022-07-29T07:32:43;101037.56;;;18.18;100.00
10897;BME280;5501;51.176;6.470;2022-07-29T07:37:45;101028.19;;;18.42;100.00
10897;BME280;5501;51.176;6.470;2022-07-29T07:42:48;101014.78;;;18.57;100.00
10897;BME280;5501;51.176;6.470;2022-07-29T07:47:50;101006.59;;;18.74;100.00
10897;BME280;5501;51.176;6.470;2022-07-29T07:52:53;101016.09;;;18.81;100.00
10897;BME280;5501;51.176;6.470;2022-07-29T07:57:55;101017.34;;;19.05;98.22
10897;BME280;5501;51.176;6.470;2022-07-29T08:02:57;101021.97;;;19.34;99.59
10897;BME280;5501;51.176;6.470;2022-07-29T08:07:59;101027.91;;;19.55;95.25
10897;BME280;5501;51.176;6.470;2022-07-29T08:13:07;101037.97;;;19.67;93.76
10897;BME280;5501;51.176;6.470;2022-07-29T08:18:09;101043.34;;;19.53;93.60
10897;BME280;5501;51.176;6.470;2022-07-29T08:23:11;101043.44;;;19.51;95.31
10897;BME280;5501;51.176;6.470;2022-07-29T08:28:12;101053.72;;;19.29;93.13
10897;BME280;5501;51.176;6.470;2022-07-29T08:33:14;101056.31;;;19.15;93.11
10897;BME280;5501;51.176;6.470;2022-07-29T08:38:16;101065.19;;;19.02;94.71
10897;BME280;5501;51.176;6.470;2022-07-29T08:43:18;101063.19;;;19.05;97.04
10897;BME280;5501;51.176;6.470;2022-07-29T08:48:21;101058.59;;;19.07;95.81
10897;BME280;5501;51.176;6.470;2022-07-29T08:53:25;101053.25;;;19.21;94.97
10897;BME280;5501;51.176;6.470;2022-07-29T08:58:32;101041.03;;;19.31;93.75
10897;BME280;5501;51.176;6.470;2022-07-29T09:03:38;101046.72;;;19.56;93.49
10897;BME280;5501;51.176;6.470;2022-07-29T09:08:41;101046.34;;;19.62;91.97
10897;BME280;5501;51.176;6.470;2022-07-29T09:13:44;101054.34;;;19.93;92.93
10897;BME280;5501;51.176;6.470;2022-07-29T09:18:46;101066.91;;;20.09;87.28
10897;BME280;5501;51.176;6.470;2022-07-29T09:24:07;101065.03;;;20.39;85.93
10897;BME280;5501;51.176;6.470;2022-07-29T09:29:14;101063.66;;;20.32;87.01
10897;BME280;5501;51.176;6.470;2022-07-29T09:34:27;101071.41;;;20.38;84.74
10897;BME280;5501;51.176;6.470;2022-07-29T09:39:38;101074.91;;;20.54;86.53
10897;BME280;5501;51.176;6.470;2022-07-29T09:44:49;101072.56;;;20.90;80.24
10897;BME280;5501;51.176;6.470;2022-07-29T09:49:56;101080.00;;;21.00;76.03
10897;BME280;5501;51.176;6.470;2022-07-29T09:55:08;101078.94;;;21.03;74.95
10897;BME280;5501;51.176;6.470;2022-07-29T10:00:19;101076.41;;;21.14;77.05
10897;BME280;5501;51.176;6.470;2022-07-29T10:05:23;101087.00;;;21.17;72.44
10897;BME280;5501;51.176;6.470;2022-07-29T10:10:30;101087.97;;;21.83;68.32
10897;BME280;5501;51.176;6.470;2022-07-29T10:15:35;101094.56;;;21.65;69.32
10897;BME280;5501;51.176;6.470;2022-07-29T10:20:45;101096.31;;;21.66;69.76
10897;BME280;5501;51.176;6.470;2022-07-29T10:25:46;101097.47;;;21.76;68.11
10897;BME280;5501;51.176;6.470;2022-07-29T10:31:08;101082.56;;;21.83;68.76
10897;BME280;5501;51.176;6.470;2022-07-29T10:36:40;101089.19;;;22.16;68.28
10897;BME280;5501;51.176;6.470;2022-07-29T10:47:04;101088.66;;;22.36;64.45
10897;BME280;5501;51.176;6.470;2022-07-29T10:52:07;101094.31;;;22.33;64.02
10897;BME280;5501;51.176;6.470;2022-07-29T11:19:19;101090.63;;;22.09;64.02
10897;BME280;5501;51.176;6.470;2022-07-29T11:24:31;101088.66;;;21.99;64.55
10897;BME280;5501;51.176;6.470;2022-07-29T11:29:39;101098.50;;;22.00;65.76
10897;BME280;5501;51.176;6.470;2022-07-29T11:34:43;101092.94;;;21.89;69.34
10897;BME280;5501;51.176;6.470;2022-07-29T11:45:00;101101.50;;;22.47;65.69
10897;BME280;5501;51.176;6.470;2022-07-29T11:50:31;101107.16;;;22.69;65.35
10897;BME280;5501;51.176;6.470;2022-07-29T11:55:37;101095.16;;;23.09;62.80
10897;BME280;5501;51.176;6.470;2022-07-29T12:00:52;101097.34;;;23.40;62.01
10897;BME280;5501;51.176;6.470;2022-07-29T12:05:56;101098.19;;;23.87;60.29
10897;BME280;5501;51.176;6.470;2022-07-29T12:10:58;101094.53;;;24.23;56.50
10897;BME280;5501;51.176;6.470;2022-07-29T12:15:59;101088.16;;;23.77;57.45
10897;BME280;5501;51.176;6.470;2022-07-29T12:21:02;101090.28;;;23.84;57.50
10897;BME280;5501;51.176;6.470;2022-07-29T12:26:08;101092.44;;;23.92;56.90
10897;BME280;5501;51.176;6.470;2022-07-29T12:31:22;101087.22;;;24.23;58.62
10897;BME280;5501;51.176;6.470;2022-07-29T12:36:43;101088.09;;;24.24;55.96
10897;BME280;5501;51.176;6.470;2022-07-29T12:41:45;101092.09;;;24.31;53.25
10897;BME280;5501;51.176;6.470;2022-07-29T12:47:01;101081.78;;;24.23;53.12
10897;BME280;5501;51.176;6.470;2022-07-29T12:52:23;101081.47;;;24.39;55.59
10897;BME280;5501;51.176;6.470;2022-07-29T12:57:26;101085.41;;;24.35;52.29
10897;BME280;5501;51.176;6.470;2022-07-29T13:02:28;101078.50;;;24.53;54.00
10897;BME280;5501;51.176;6.470;2022-07-29T13:07:31;101086.78;;;24.52;52.28
10897;BME280;5501;51.176;6.470;2022-07-29T13:13:08;101082.81;;;24.34;52.30
10897;BME280;5501;51.176;6.470;2022-07-29T13:18:30;101088.44;;;24.65;51.49
10897;BME280;5501;51.176;6.470;2022-07-29T13:23:31;101082.13;;;24.65;51.77
10897;BME280;5501;51.176;6.470;2022-07-29T13:28:38;101082.41;;;24.62;51.01
10897;BME280;5501;51.176;6.470;2022-07-29T13:33:40;101088.78;;;24.50;53.68
10897;BME280;5501;51.176;6.470;2022-07-29T13:38:41;101076.69;;;24.87;51.25
10897;BME280;5501;51.176;6.470;2022-07-29T13:43:43;101073.94;;;24.54;51.76
10897;BME280;5501;51.176;6.470;2022-07-29T13:48:44;101077.31;;;24.68;51.09
10897;BME280;5501;51.176;6.470;2022-07-29T13:53:46;101076.06;;;24.94;49.21
10897;BME280;5501;51.176;6.470;2022-07-29T13:58:48;101068.63;;;25.07;49.15
10897;BME280;5501;51.176;6.470;2022-07-29T14:03:49;101066.38;;;25.23;47.32
10897;BME280;5501;51.176;6.470;2022-07-29T14:08:51;101061.69;;;25.25;48.84
10897;BME280;5501;51.176;6.470;2022-07-29T14:13:52;101057.69;;;25.40;48.42
10897;BME280;5501;51.176;6.470;2022-07-29T14:18:54;101052.50;;;25.37;46.87
10897;BME280;5501;51.176;6.470;2022-07-29T14:23:56;101061.91;;;25.76;46.42
10897;BME280;5501;51.176;6.470;2022-07-29T14:28:58;101053.44;;;25.58;44.07
10897;BME280;5501;51.176;6.470;2022-07-29T14:34:00;101057.59;;;25.73;44.91
10897;BME280;5501;51.176;6.470;2022-07-29T14:39:03;101048.66;;;25.71;44.39
10897;BME280;5501;51.176;6.470;2022-07-29T14:44:05;101051.72;;;25.57;46.67
10897;BME280;5501;51.176;6.470;2022-07-29T14:49:06;101052.59;;;25.78;46.21
10897;BME280;5501;51.176;6.470;2022-07-29T14:54:10;101053.50;;;25.99;45.66
10897;BME280;5501;51.176;6.470;2022-07-29T14:59:11;101054.66;;;25.65;46.93
10897;BME280;5501;51.176;6.470;2022-07-29T15:04:13;101046.75;;;25.51;48.71
10897;BME280;5501;51.176;6.470;2022-07-29T15:09:14;101045.72;;;25.63;48.87
10897;BME280;5501;51.176;6.470;2022-07-29T15:14:16;101049.09;;;25.87;49.25
10897;BME280;5501;51.176;6.470;2022-07-29T15:19:18;101048.31;;;25.65;51.00
10897;BME280;5501;51.176;6.470;2022-07-29T15:24:19;101047.31;;;25.97;50.31
10897;BME280;5501;51.176;6.470;2022-07-29T15:29:21;101044.59;;;25.97;49.80
10897;BME280;5501;51.176;6.470;2022-07-29T15:34:22;101050.38;;;25.72;49.23
10897;BME280;5501;51.176;6.470;2022-07-29T15:39:24;101040.34;;;26.04;48.87
10897;BME280;5501;51.176;6.470;2022-07-29T15:44:26;101047.19;;;26.19;48.56
10897;BME280;5501;51.176;6.470;2022-07-29T15:49:45;101049.84;;;25.89;49.16
10897;BME280;5501;51.176;6.470;2022-07-29T15:54:49;101045.63;;;25.85;49.92
10897;BME280;5501;51.176;6.470;2022-07-29T15:59:51;101041.25;;;25.73;51.54
10897;BME280;5501;51.176;6.470;2022-07-29T16:04:53;101049.63;;;25.81;51.34
10897;BME280;5501;51.176;6.470;2022-07-29T16:09:54;101039.66;;;25.91;50.04
10897;BME280;5501;51.176;6.470;2022-07-29T16:14:56;101044.94;;;26.04;49.06
10897;BME280;5501;51.176;6.470;2022-07-29T16:19:57;101032.63;;;26.09;49.49
10897;BME280;5501;51.176;6.470;2022-07-29T16:24:59;101040.47;;;26.23;49.17
10897;BME280;5501;51.176;6.470;2022-07-29T16:30:00;101041.19;;;26.25;48.42
10897;BME280;5501;51.176;6.470;2022-07-29T16:35:02;101032.63;;;26.09;48.43
10897;BME280;5501;51.176;6.470;2022-07-29T16:40:06;101044.00;;;25.94;48.83
10897;BME280;5501;51.176;6.470;2022-07-29T16:45:12;101035.19;;;25.90;49.33
10897;BME280;5501;51.176;6.470;2022-07-29T16:50:14;101027.06;;;25.79;49.38
10897;BME280;5501;51.176;6.470;2022-07-29T16:55:15;101031.31;;;25.72;49.58
10897;BME280;5501;51.176;6.470;2022-07-29T17:00:19;101036.19;;;25.58;49.27
10897;BME280;5501;51.176;6.470;2022-07-29T17:05:21;101038.13;;;25.46;49.30
10897;BME280;5501;51.176;6.470;2022-07-29T17:10:24;101034.94;;;25.41;50.10
10897;BME280;5501;51.176;6.470;2022-07-29T17:15:28;101028.00;;;25.37;50.34
10897;BME280;5501;51.176;6.470;2022-07-29T17:20:29;101032.97;;;25.21;50.36
10897;BME280;5501;51.176;6.470;2022-07-29T17:25:33;101041.91;;;25.12;51.39
10897;BME280;5501;51.176;6.470;2022-07-29T17:30:34;101040.16;;;25.11;51.21
10897;BME280;5501;51.176;6.470;2022-07-29T17:35:36;101045.63;;;25.00;50.72
10897;BME280;5501;51.176;6.470;2022-07-29T17:40:56;101053.28;;;24.95;50.53
10897;BME280;5501;51.176;6.470;2022-07-29T17:45:58;101055.53;;;24.90;52.48
10897;BME280;5501;51.176;6.470;2022-07-29T17:51:00;101062.34;;;24.85;52.21
10897;BME280;5501;51.176;6.470;2022-07-29T17:56:03;101062.47;;;24.72;52.45
10897;BME280;5501;51.176;6.470;2022-07-29T18:01:05;101071.59;;;24.60;53.36
10897;BME280;5501;51.176;6.470;2022-07-29T18:06:07;101072.81;;;24.56;54.03
10897;BME280;5501;51.176;6.470;2022-07-29T18:11:10;101072.94;;;24.44;54.29
10897;BME280;5501;51.176;6.470;2022-07-29T18:16:15;101073.31;;;24.50;53.48
10897;BME280;5501;51.176;6.470;2022-07-29T18:21:17;101077.75;;;24.40;54.95
10897;BME280;5501;51.176;6.470;2022-07-29T18:26:38;101080.97;;;24.45;54.69
10897;BME280;5501;51.176;6.470;2022-07-29T18:31:40;101081.47;;;24.50;53.70
10897;BME280;5501;51.176;6.470;2022-07-29T18:36:41;101086.16;;;24.48;53.59
10897;BME280;5501;51.176;6.470;2022-07-29T18:41:43;101095.31;;;24.47;54.92
10897;BME280;5501;51.176;6.470;2022-07-29T18:46:51;101087.97;;;24.37;55.57
10897;BME280;5501;51.176;6.470;2022-07-29T18:51:52;101092.03;;;24.20;56.78
10897;BME280;5501;51.176;6.470;2022-07-29T18:56:54;101097.53;;;24.31;55.83
10897;BME280;5501;51.176;6.470;2022-07-29T19:01:56;101096.00;;;24.16;57.54
10897;BME280;5501;51.176;6.470;2022-07-29T19:06:58;101093.00;;;24.08;57.63
10897;BME280;5501;51.176;6.470;2022-07-29T19:12:03;101082.09;;;23.97;57.77
10897;BME280;5501;51.176;6.470;2022-07-29T19:17:05;101088.53;;;23.83;58.80
10897;BME280;5501;51.176;6.470;2022-07-29T19:22:06;101094.06;;;23.71;58.39
10897;BME280;5501;51.176;6.470;2022-07-29T19:27:08;101096.00;;;23.69;58.52
10897;BME280;5501;51.176;6.470;2022-07-29T19:32:09;101108.50;;;23.48;60.03
10897;BME280;5501;51.176;6.470;2022-07-29T19:37:11;101111.72;;;23.53;59.16
10897;BME280;5501;51.176;6.470;2022-07-29T19:42:12;101125.25;;;23.42;60.38
10897;BME280;5501;51.176;6.470;2022-07-29T19:47:14;101128.53;;;23.34;61.08
10897;BME280;5501;51.176;6.470;2022-07-29T19:52:17;101128.38;;;23.25;61.13
10897;BME280;5501;51.176;6.470;2022-07-29T19:57:19;101140.59;;;23.18;61.75
10897;BME280;5501;51.176;6.470;2022-07-29T20:02:21;101148.09;;;23.14;62.05
10897;BME280;5501;51.176;6.470;2022-07-29T20:07:22;101149.19;;;23.12;61.08
10897;BME280;5501;51.176;6.470;2022-07-29T20:12:24;101142.28;;;22.95;61.99
10897;BME280;5501;51.176;6.470;2022-07-29T20:17:25;101159.41;;;22.96;62.71
10897;BME280;5501;51.176;6.470;2022-07-29T20:22:28;101149.88;;;22.90;64.11
10897;BME280;5501;51.176;6.470;2022-07-29T20:27:30;101159.31;;;22.85;65.89
10897;BME280;5501;51.176;6.470;2022-07-29T20:32:32;101160.28;;;22.84;65.85
10897;BME280;5501;51.176;6.470;2022-07-29T20:37:33;101171.78;;;22.75;65.09
10897;BME280;5501;51.176;6.470;2022-07-29T20:42:55;101172.44;;;22.66;66.20
10897;BME280;5501;51.176;6.470;2022-07-29T20:47:56;101178.31;;;22.60;65.87
10897;BME280;5501;51.176;6.470;2022-07-29T20:52:58;101177.41;;;22.47;66.34
10897;BME280;5501;51.176;6.470;2022-07-29T20:58:00;101181.06;;;22.46;65.28
10897;BME280;5501;51.176;6.470;2022-07-29T21:03:02;101183.88;;;22.32;65.12
10897;BME280;5501;51.176;6.470;2022-07-29T21:08:05;101187.78;;;22.28;64.98
10897;BME280;5501;51.176;6.470;2022-07-29T21:13:06;101191.44;;;22.27;64.11
10897;BME280;5501;51.176;6.470;2022-07-29T21:18:08;101197.72;;;22.27;63.41
10897;BME280;5501;51.176;6.470;2022-07-29T21:23:27;101196.63;;;22.17;63.00
10897;BME280;5501;51.176;6.470;2022-07-29T21:28:29;101201.81;;;22.08;63.04
10897;BME280;5501;51.176;6.470;2022-07-29T21:33:36;101211.50;;;21.98;63.21
10897;BME280;5501;51.176;6.470;2022-07-29T21:38:38;101206.19;;;21.96;63.30
10897;BME280;5501;51.176;6.470;2022-07-29T21:43:39;101209.03;;;21.95;62.78
10897;BME280;5501;51.176;6.470;2022-07-29T21:48:42;101213.28;;;21.85;62.89
10897;BME280;5501;51.176;6.470;2022-07-29T21:53:45;101210.59;;;21.85;64.00
10897;BME280;5501;51.176;6.470;2022-07-29T21:58:46;101203.28;;;21.73;64.81
10897;BME280;5501;51.176;6.470;2022-07-29T22:03:48;101212.06;;;21.62;65.85
10897;BME280;5501;51.176;6.470;2022-07-29T22:08:49;101209.03;;;21.40;66.59
10897;BME280;5501;51.176;6.470;2022-07-29T22:13:51;101205.44;;;21.40;66.66
10897;BME280;5501;51.176;6.470;2022-07-29T22:18:53;101211.91;;;21.23;68.01
10897;BME280;5501;51.176;6.470;2022-07-29T22:23:54;101199.38;;;21.22;68.51
10897;BME280;5501;51.176;6.470;2022-07-29T22:28:56;101202.00;;;21.10;69.36
10897;BME280;5501;51.176;6.470;2022-07-29T22:33:58;101194.25;;;21.04;71.29
10897;BME280;5501;51.176;6.470;2022-07-29T22:38:59;101196.66;;;20.80;73.91
10897;BME280;5501;51.176;6.470;2022-07-29T22:44:00;101196.34;;;20.71;74.82
10897;BME280;5501;51.176;6.470;2022-07-29T22:49:02;101188.00;;;20.60;75.94
10897;BME280;5501;51.176;6.470;2022-07-29T22:54:05;101187.84;;;20.63;76.00
10897;BME280;5501;51.176;6.470;2022-07-29T22:59:07;101185.72;;;20.68;75.96
10897;BME280;5501;51.176;6.470;2022-07-29T23:04:09;101175.84;;;20.53;76.96
10897;BME280;5501;51.176;6.470;2022-07-29T23:09:14;101178.09;;;20.60;76.91
10897;BME280;5501;51.176;6.470;2022-07-29T23:14:16;101170.84;;;20.75;75.22
10897;BME280;5501;51.176;6.470;2022-07-29T23:19:18;101168.91;;;20.49;75.58
10897;BME280;5501;51.176;6.470;2022-07-29T23:24:19;101166.47;;;20.58;75.41
10897;BME280;5501;51.176;6.470;2022-07-29T23:29:21;101165.63;;;20.72;73.73
10897;BME280;5501;51.176;6.470;2022-07-29T23:34:22;101167.75;;;20.53;75.24
10897;BME280;5501;51.176;6.470;2022-07-29T23:39:23;101165.22;;;20.50;74.65
10897;BME280;5501;51.176;6.470;2022-07-29T23:44:25;101162.88;;;20.30;75.95
10897;BME280;5501;51.176;6.470;2022-07-29T23:49:27;101163.78;;;20.15;76.60
10897;BME280;5501;51.176;6.470;2022-07-29T23:54:28;101165.81;;;20.11;75.93
10897;BME280;5501;51.176;6.470;2022-07-29T23:59:30;101159.75;;;20.22;75.34
